Aviation Digital Data Service (ADDS)

Output produced by METARs form (1055 UTC 19 February 2019)
found at http://www.aviationweather.gov/metar/data/
 
METAR text: KMLB 191021Z AUTO 36010KT 9SM OVC005 21/19 A3016 RMK AO2 T02110189
Conditions at: KMLB (MELBOURNE , FL, US) observed 1021 UTC 19 February 2019
Temperature: 21.1°C (70°F)
Dewpoint: 18.9°C (66°F) [RH = 87%]
Pressure (altimeter): 30.16 inches Hg (1021.4 mb)
Winds: from the N (360 degrees) at 12 MPH (10 knots; 5.1 m/s)
Visibility: 9 miles (14 km)
Ceiling: 500 feet AGL
Clouds: overcast cloud deck at 500 feet AGL
Weather: automated observation with no human augmentation;
there may or may not be significant weather present at this time

METAR text: KMLB 190953Z AUTO 36007KT 5SM BR OVC004 21/20 A3016 RMK AO2 SLP212 T02110200
Conditions at: KMLB (MELBOURNE , FL, US) observed 0953 UTC 19 February 2019
Temperature: 21.1°C (70°F)
Dewpoint: 20.0°C (68°F) [RH = 93%]
Pressure (altimeter): 30.16 inches Hg (1021.4 mb)
[Sea-level pressure: 1021.2 mb]
Winds: from the N (360 degrees) at 8 MPH (7 knots; 3.6 m/s)
Visibility: 5 miles ( 8 km)
Ceiling: 400 feet AGL
Clouds: overcast cloud deck at 400 feet AGL
Weather: BR  (mist)

METAR text: KMLB 190853Z AUTO 02009KT 5SM BR OVC004 21/19 A3015 RMK AO2 SLP210 60000 T02110194 58002
Conditions at: KMLB (MELBOURNE , FL, US) observed 0853 UTC 19 February 2019
Temperature: 21.1°C (70°F)
Dewpoint: 19.4°C (67°F) [RH = 90%]
Pressure (altimeter): 30.15 inches Hg (1021.1 mb)
[Sea-level pressure: 1021.0 mb]
Winds: from the NNE (20 degrees) at 10 MPH (9 knots; 4.6 m/s)
Visibility: 5 miles ( 8 km)
Ceiling: 400 feet AGL
Clouds: overcast cloud deck at 400 feet AGL
Weather: BR  (mist)

METAR text: KMLB 190832Z AUTO 01008KT 7SM OVC004 21/19 A3015 RMK AO2 T02110194
Conditions at: KMLB (MELBOURNE , FL, US) observed 0832 UTC 19 February 2019
Temperature: 21.1°C (70°F)
Dewpoint: 19.4°C (67°F) [RH = 90%]
Pressure (altimeter): 30.15 inches Hg (1021.1 mb)
Winds: from the N (10 degrees) at 9 MPH (8 knots; 4.1 m/s)
Visibility: 7 miles (11 km)
Ceiling: 400 feet AGL
Clouds: overcast cloud deck at 400 feet AGL
Weather: automated observation with no human augmentation;
there may or may not be significant weather present at this time

METAR text: KMLB 190753Z AUTO 02003KT 7SM OVC005 23/22 A3016 RMK AO2 SLP211 T02280217
Conditions at: KMLB (MELBOURNE , FL, US) observed 0753 UTC 19 February 2019
Temperature: 22.8°C (73°F)
Dewpoint: 21.7°C (71°F) [RH = 94%]
Pressure (altimeter): 30.16 inches Hg (1021.4 mb)
[Sea-level pressure: 1021.1 mb]
Winds: from the NNE (20 degrees) at 3 MPH (3 knots; 1.5 m/s)
Visibility: 7 miles (11 km)
Ceiling: 500 feet AGL
Clouds: overcast cloud deck at 500 feet AGL
Weather: automated observation with no human augmentation;
there may or may not be significant weather present at this time

METAR text: KMLB 190742Z AUTO 36003KT 7SM OVC005 23/22 A3016 RMK AO2 T02330217
Conditions at: KMLB (MELBOURNE , FL, US) observed 0742 UTC 19 February 2019
Temperature: 23.3°C (74°F)
Dewpoint: 21.7°C (71°F) [RH = 91%]
Pressure (altimeter): 30.16 inches Hg (1021.4 mb)
Winds: from the N (360 degrees) at 3 MPH (3 knots; 1.5 m/s)
Visibility: 7 miles (11 km)
Ceiling: 500 feet AGL
Clouds: overcast cloud deck at 500 feet AGL
Weather: automated observation with no human augmentation;
there may or may not be significant weather present at this time

METAR text: KMLB 190725Z AUTO 02004KT 7SM BKN004 OVC011 23/22 A3016 RMK AO2 T02330222
Conditions at: KMLB (MELBOURNE , FL, US) observed 0725 UTC 19 February 2019
Temperature: 23.3°C (74°F)
Dewpoint: 22.2°C (72°F) [RH = 94%]
Pressure (altimeter): 30.16 inches Hg (1021.4 mb)
Winds: from the NNE (20 degrees) at 5 MPH (4 knots; 2.1 m/s)
Visibility: 7 miles (11 km)
Ceiling: 400 feet AGL
Clouds: broken clouds at 400 feet AGL
overcast cloud deck at 1100 feet AGL
Weather: automated observation with no human augmentation;
there may or may not be significant weather present at this time

METAR text: KMLB 190653Z AUTO 00000KT 7SM FEW005 OVC010 24/22 A3016 RMK AO2 RAB0558E11 SLP211 P0000 T02390222
Conditions at: KMLB (MELBOURNE , FL, US) observed 0653 UTC 19 February 2019
Temperature: 23.9°C (75°F)
Dewpoint: 22.2°C (72°F) [RH = 90%]
Pressure (altimeter): 30.16 inches Hg (1021.4 mb)
[Sea-level pressure: 1021.1 mb]
Winds: calm
Visibility: 7 miles (11 km)
Ceiling: 1000 feet AGL
Clouds: few clouds at 500 feet AGL
overcast cloud deck at 1000 feet AGL
Weather: automated observation with no human augmentation;
there may or may not be significant weather present at this time

METAR text: KMLB 190648Z AUTO 00000KT 7SM FEW005 OVC010 23/22 A3016 RMK AO2 RAB0558E11 P0000
Conditions at: KMLB (MELBOURNE , FL, US) observed 0648 UTC 19 February 2019
Temperature: 23.0°C (73°F)
Dewpoint: 22.0°C (72°F) [RH = 94%]
Pressure (altimeter): 30.16 inches Hg (1021.4 mb)
Winds: calm
Visibility: 7 miles (11 km)
Ceiling: 1000 feet AGL
Clouds: few clouds at 500 feet AGL
overcast cloud deck at 1000 feet AGL
Weather: automated observation with no human augmentation;
there may or may not be significant weather present at this time

METAR text: KMLB 190604Z AUTO 33003KT 7SM -RA BKN005 BKN009 OVC070 23/22 A3016 RMK AO2 RAB0558 P0000 T02330222
Conditions at: KMLB (MELBOURNE , FL, US) observed 0604 UTC 19 February 2019
Temperature: 23.3°C (74°F)
Dewpoint: 22.2°C (72°F) [RH = 94%]
Pressure (altimeter): 30.16 inches Hg (1021.4 mb)
Winds: from the NNW (330 degrees) at 3 MPH (3 knots; 1.5 m/s)
Visibility: 7 miles (11 km)
Ceiling: 500 feet AGL
Clouds: broken clouds at 500 feet AGL
broken clouds at 900 feet AGL
overcast cloud deck at 7000 feet AGL
Weather: -RA  (light rain)

METAR text: KMLB 190553Z AUTO 00000KT 8SM SCT005 OVC070 24/23 A3016 RMK AO2 SLP213 T02390228 10244 20233 58001
Conditions at: KMLB (MELBOURNE , FL, US) observed 0553 UTC 19 February 2019
Temperature: 23.9°C (75°F)
Dewpoint: 22.8°C (73°F) [RH = 94%]
Pressure (altimeter): 30.16 inches Hg (1021.4 mb)
[Sea-level pressure: 1021.3 mb]
Winds: calm
Visibility: 8 miles (13 km)
Ceiling: 7000 feet AGL
Clouds: scattered clouds at 500 feet AGL
overcast cloud deck at 7000 feet AGL
Weather: automated observation with no human augmentation;
there may or may not be significant weather present at this time

METAR text: KMLB 190453Z AUTO 00000KT 10SM OVC080 23/22 A3017 RMK AO2 SLP214 T02330217 403170206
Conditions at: KMLB (MELBOURNE , FL, US) observed 0453 UTC 19 February 2019
Temperature: 23.3°C (74°F)
Dewpoint: 21.7°C (71°F) [RH = 91%]
Pressure (altimeter): 30.17 inches Hg (1021.8 mb)
[Sea-level pressure: 1021.4 mb]
Winds: calm
Visibility: 10 or more miles (16+ km)
Ceiling: 8000 feet AGL
Clouds: overcast cloud deck at 8000 feet AGL
Weather: automated observation with no human augmentation;
there may or may not be significant weather present at this time

METAR text: KMLB 190353Z 12004KT 10SM BKN060 BKN100 23/22 A3017 RMK AO2 SLP214 T02330217
Conditions at: KMLB (MELBOURNE , FL, US) observed 0353 UTC 19 February 2019
Temperature: 23.3°C (74°F)
Dewpoint: 21.7°C (71°F) [RH = 91%]
Pressure (altimeter): 30.17 inches Hg (1021.8 mb)
[Sea-level pressure: 1021.4 mb]
Winds: from the ESE (120 degrees) at 5 MPH (4 knots; 2.1 m/s)
Visibility: 10 or more miles (16+ km)
Ceiling: 6000 feet AGL
Clouds: broken clouds at 6000 feet AGL
broken clouds at 10000 feet AGL
Weather: no significant weather observed at this time

METAR text: KMLB 190253Z 13007KT 10SM FEW055 OVC095 24/22 A3017 RMK AO2 SLP214 T02390222 51016
Conditions at: KMLB (MELBOURNE , FL, US) observed 0253 UTC 19 February 2019
Temperature: 23.9°C (75°F)
Dewpoint: 22.2°C (72°F) [RH = 90%]
Pressure (altimeter): 30.17 inches Hg (1021.8 mb)
[Sea-level pressure: 1021.4 mb]
Winds: from the SE (130 degrees) at 8 MPH (7 knots; 3.6 m/s)
Visibility: 10 or more miles (16+ km)
Ceiling: 9500 feet AGL
Clouds: few clouds at 5500 feet AGL
overcast cloud deck at 9500 feet AGL
Weather: no significant weather observed at this time

METAR text: KMLB 190153Z 12006KT 10SM FEW044 BKN060 OVC095 24/22 A3015 RMK AO2 SLP209 T02390222
Conditions at: KMLB (MELBOURNE , FL, US) observed 0153 UTC 19 February 2019
Temperature: 23.9°C (75°F)
Dewpoint: 22.2°C (72°F) [RH = 90%]
Pressure (altimeter): 30.15 inches Hg (1021.1 mb)
[Sea-level pressure: 1020.9 mb]
Winds: from the ESE (120 degrees) at 7 MPH (6 knots; 3.1 m/s)
Visibility: 10 or more miles (16+ km)
Ceiling: 6000 feet AGL
Clouds: few clouds at 4400 feet AGL
broken clouds at 6000 feet AGL
overcast cloud deck at 9500 feet AGL
Weather: no significant weather observed at this time

METAR text: KMLB 190053Z 12006KT 10SM FEW043 SCT065 BKN090 24/22 A3013 RMK AO2 SLP203 T02440222
Conditions at: KMLB (MELBOURNE , FL, US) observed 0053 UTC 19 February 2019
Temperature: 24.4°C (76°F)
Dewpoint: 22.2°C (72°F) [RH = 88%]
Pressure (altimeter): 30.13 inches Hg (1020.4 mb)
[Sea-level pressure: 1020.3 mb]
Winds: from the ESE (120 degrees) at 7 MPH (6 knots; 3.1 m/s)
Visibility: 10 or more miles (16+ km)
Ceiling: 9000 feet AGL
Clouds: few clouds at 4300 feet AGL
scattered clouds at 6500 feet AGL
broken clouds at 9000 feet AGL
Weather: no significant weather observed at this time

METAR text: KMLB 182353Z 08007KT 10SM OVC047 24/22 A3012 RMK AO2 SLP198 T02390217 10317 20239 53014
Conditions at: KMLB (MELBOURNE , FL, US) observed 2353 UTC 18 February 2019
Temperature: 23.9°C (75°F)
Dewpoint: 21.7°C (71°F) [RH = 88%]
Pressure (altimeter): 30.12 inches Hg (1020.1 mb)
[Sea-level pressure: 1019.8 mb]
Winds: from the E (80 degrees) at 8 MPH (7 knots; 3.6 m/s)
Visibility: 10 or more miles (16+ km)
Ceiling: 4700 feet AGL
Clouds: overcast cloud deck at 4700 feet AGL
Weather: no significant weather observed at this time

METAR text: KMLB 182253Z 11006KT 10SM SCT050 26/22 A3010 RMK AO2 SLP192 T02560217
Conditions at: KMLB (MELBOURNE , FL, US) observed 2253 UTC 18 February 2019
Temperature: 25.6°C (78°F)
Dewpoint: 21.7°C (71°F) [RH = 79%]
Pressure (altimeter): 30.10 inches Hg (1019.4 mb)
[Sea-level pressure: 1019.2 mb]
Winds: from the ESE (110 degrees) at 7 MPH (6 knots; 3.1 m/s)
Visibility: 10 or more miles (16+ km)
Ceiling: at least 12,000 feet AGL
Clouds: scattered clouds at 5000 feet AGL
Weather: no significant weather observed at this time

METAR text: KMLB 182153Z 12010KT 10SM CLR 27/22 A3008 RMK AO2 SLP186 T02720217
Conditions at: KMLB (MELBOURNE , FL, US) observed 2153 UTC 18 February 2019
Temperature: 27.2°C (81°F)
Dewpoint: 21.7°C (71°F) [RH = 72%]
Pressure (altimeter): 30.08 inches Hg (1018.7 mb)
[Sea-level pressure: 1018.6 mb]
Winds: from the ESE (120 degrees) at 12 MPH (10 knots; 5.1 m/s)
Visibility: 10 or more miles (16+ km)
Ceiling: at least 12,000 feet AGL
Clouds: sky clear below 12,000 feet AGL
Weather: no significant weather observed at this time

METAR text: KMLB 182053Z 12009KT 10SM BKN047 BKN055 OVC080 27/22 A3008 RMK AO2 SLP184 T02670217 55008
Conditions at: KMLB (MELBOURNE , FL, US) observed 2053 UTC 18 February 2019
Temperature: 26.7°C (80°F)
Dewpoint: 21.7°C (71°F) [RH = 74%]
Pressure (altimeter): 30.08 inches Hg (1018.7 mb)
[Sea-level pressure: 1018.4 mb]
Winds: from the ESE (120 degrees) at 10 MPH (9 knots; 4.6 m/s)
Visibility: 10 or more miles (16+ km)
Ceiling: 4700 feet AGL
Clouds: broken clouds at 4700 feet AGL
broken clouds at 5500 feet AGL
overcast cloud deck at 8000 feet AGL
Weather: no significant weather observed at this time

METAR text: KMLB 181953Z 09006KT 10SM FEW045 BKN085 30/20 A3007 RMK AO2 SLP181 T03000200
Conditions at: KMLB (MELBOURNE , FL, US) observed 1953 UTC 18 February 2019
Temperature: 30.0°C (86°F)
Dewpoint: 20.0°C (68°F) [RH = 55%]
Pressure (altimeter): 30.07 inches Hg (1018.4 mb)
[Sea-level pressure: 1018.1 mb]
Winds: from the E (90 degrees) at 7 MPH (6 knots; 3.1 m/s)
Visibility: 10 or more miles (16+ km)
Ceiling: 8500 feet AGL
Clouds: few clouds at 4500 feet AGL
broken clouds at 8500 feet AGL
Weather: no significant weather observed at this time

METAR text: KMLB 181853Z 24008KT 10SM SCT070 31/21 A3008 RMK AO2 SLP185 T03110206
Conditions at: KMLB (MELBOURNE , FL, US) observed 1853 UTC 18 February 2019
Temperature: 31.1°C (88°F)
Dewpoint: 20.6°C (69°F) [RH = 54%]
Pressure (altimeter): 30.08 inches Hg (1018.7 mb)
[Sea-level pressure: 1018.5 mb]
Winds: from the WSW (240 degrees) at 9 MPH (8 knots; 4.1 m/s)
Visibility: 10 or more miles (16+ km)
Ceiling: at least 12,000 feet AGL
Clouds: scattered clouds at 7000 feet AGL
Weather: no significant weather observed at this time

METAR text: KMLB 181753Z 26008KT 10SM SCT080 29/21 A3010 RMK AO2 SLP192 T02940211 10306 20222 58005
Conditions at: KMLB (MELBOURNE , FL, US) observed 1753 UTC 18 February 2019
Temperature: 29.4°C (85°F)
Dewpoint: 21.1°C (70°F) [RH = 61%]
Pressure (altimeter): 30.10 inches Hg (1019.4 mb)
[Sea-level pressure: 1019.2 mb]
Winds: from the W (260 degrees) at 9 MPH (8 knots; 4.1 m/s)
Visibility: 10 or more miles (16+ km)
Ceiling: at least 12,000 feet AGL
Clouds: scattered clouds at 8000 feet AGL
Weather: no significant weather observed at this time

METAR text: KMLB 181653Z 21011KT 10SM SCT025 SCT030 BKN060 29/22 A3012 RMK AO2 SLP198 T02940217
Conditions at: KMLB (MELBOURNE , FL, US) observed 1653 UTC 18 February 2019
Temperature: 29.4°C (85°F)
Dewpoint: 21.7°C (71°F) [RH = 63%]
Pressure (altimeter): 30.12 inches Hg (1020.1 mb)
[Sea-level pressure: 1019.8 mb]
Winds: from the SSW (210 degrees) at 13 MPH (11 knots; 5.7 m/s)
Visibility: 10 or more miles (16+ km)
Ceiling: 6000 feet AGL
Clouds: scattered clouds at 2500 feet AGL
scattered clouds at 3000 feet AGL
broken clouds at 6000 feet AGL
Weather: no significant weather observed at this time

METAR text: KMLB 181553Z 23010KT 10SM SCT018 BKN060 28/22 A3012 RMK AO2 SLP200 T02780222
Conditions at: KMLB (MELBOURNE , FL, US) observed 1553 UTC 18 February 2019
Temperature: 27.8°C (82°F)
Dewpoint: 22.2°C (72°F) [RH = 72%]
Pressure (altimeter): 30.12 inches Hg (1020.1 mb)
[Sea-level pressure: 1020.0 mb]
Winds: from the SW (230 degrees) at 12 MPH (10 knots; 5.1 m/s)
Visibility: 10 or more miles (16+ km)
Ceiling: 6000 feet AGL
Clouds: scattered clouds at 1800 feet AGL
broken clouds at 6000 feet AGL
Weather: no significant weather observed at this time

METAR text: KMLB 181453Z 21010KT 10SM SCT010 BKN014 28/23 A3012 RMK AO2 SLP197 T02780228 51021
Conditions at: KMLB (MELBOURNE , FL, US) observed 1453 UTC 18 February 2019
Temperature: 27.8°C (82°F)
Dewpoint: 22.8°C (73°F) [RH = 74%]
Pressure (altimeter): 30.12 inches Hg (1020.1 mb)
[Sea-level pressure: 1019.7 mb]
Winds: from the SSW (210 degrees) at 12 MPH (10 knots; 5.1 m/s)
Visibility: 10 or more miles (16+ km)
Ceiling: 1400 feet AGL
Clouds: scattered clouds at 1000 feet AGL
broken clouds at 1400 feet AGL
Weather: no significant weather observed at this time

METAR text: KMLB 181353Z 20007KT 10SM SCT010 SCT020 BKN060 26/22 A3010 RMK AO2 SLP192 T02560222
Conditions at: KMLB (MELBOURNE , FL, US) observed 1353 UTC 18 February 2019
Temperature: 25.6°C (78°F)
Dewpoint: 22.2°C (72°F) [RH = 82%]
Pressure (altimeter): 30.10 inches Hg (1019.4 mb)
[Sea-level pressure: 1019.2 mb]
Winds: from the SSW (200 degrees) at 8 MPH (7 knots; 3.6 m/s)
Visibility: 10 or more miles (16+ km)
Ceiling: 6000 feet AGL
Clouds: scattered clouds at 1000 feet AGL
scattered clouds at 2000 feet AGL
broken clouds at 6000 feet AGL
Weather: no significant weather observed at this time

METAR text: KMLB 181253Z 19006KT 10SM FEW065 23/22 A3008 RMK AO2 SLP184 T02330217
Conditions at: KMLB (MELBOURNE , FL, US) observed 1253 UTC 18 February 2019
Temperature: 23.3°C (74°F)
Dewpoint: 21.7°C (71°F) [RH = 91%]
Pressure (altimeter): 30.08 inches Hg (1018.7 mb)
[Sea-level pressure: 1018.4 mb]
Winds: from the S (190 degrees) at 7 MPH (6 knots; 3.1 m/s)
Visibility: 10 or more miles (16+ km)
Ceiling: at least 12,000 feet AGL
Clouds: few clouds at 6500 feet AGL
Weather: no significant weather observed at this time

METAR text: KMLB 181153Z 19007KT 10SM CLR 22/21 A3005 RMK AO2 SLP177 T02220206 10222 20206 53010
Conditions at: KMLB (MELBOURNE , FL, US) observed 1153 UTC 18 February 2019
Temperature: 22.2°C (72°F)
Dewpoint: 20.6°C (69°F) [RH = 91%]
Pressure (altimeter): 30.05 inches Hg (1017.7 mb)
[Sea-level pressure: 1017.7 mb]
Winds: from the S (190 degrees) at 8 MPH (7 knots; 3.6 m/s)
Visibility: 10 or more miles (16+ km)
Ceiling: at least 12,000 feet AGL
Clouds: sky clear below 12,000 feet AGL
Weather: no significant weather observed at this time

METAR text: KMLB 181053Z 18006KT 10SM CLR 22/20 A3004 RMK AO2 SLP172 T02170200
Conditions at: KMLB (MELBOURNE , FL, US) observed 1053 UTC 18 February 2019
Temperature: 21.7°C (71°F)
Dewpoint: 20.0°C (68°F) [RH = 90%]
Pressure (altimeter): 30.04 inches Hg (1017.4 mb)
[Sea-level pressure: 1017.2 mb]
Winds: from the S (180 degrees) at 7 MPH (6 knots; 3.1 m/s)
Visibility: 10 or more miles (16+ km)
Ceiling: at least 12,000 feet AGL
Clouds: sky clear below 12,000 feet AGL
Weather: no significant weather observed at this time

METAR text: KMLB 180953Z AUTO 19006KT 10SM CLR 21/19 A3003 RMK AO2 SLP167 T02110194
Conditions at: KMLB (MELBOURNE , FL, US) observed 0953 UTC 18 February 2019
Temperature: 21.1°C (70°F)
Dewpoint: 19.4°C (67°F) [RH = 90%]
Pressure (altimeter): 30.03 inches Hg (1017.0 mb)
[Sea-level pressure: 1016.7 mb]
Winds: from the S (190 degrees) at 7 MPH (6 knots; 3.1 m/s)
Visibility: 10 or more miles (16+ km)
Ceiling: at least 12,000 feet AGL
Clouds: sky clear below 12,000 feet AGL
Weather: automated observation with no human augmentation;
there may or may not be significant weather present at this time

METAR text: KMLB 180853Z AUTO 20005KT 8SM CLR 21/19 A3003 RMK AO2 SLP167 T02110194 57001
Conditions at: KMLB (MELBOURNE , FL, US) observed 0853 UTC 18 February 2019
Temperature: 21.1°C (70°F)
Dewpoint: 19.4°C (67°F) [RH = 90%]
Pressure (altimeter): 30.03 inches Hg (1017.0 mb)
[Sea-level pressure: 1016.7 mb]
Winds: from the SSW (200 degrees) at 6 MPH (5 knots; 2.6 m/s)
Visibility: 8 miles (13 km)
Ceiling: at least 12,000 feet AGL
Clouds: sky clear below 12,000 feet AGL
Weather: automated observation with no human augmentation;
there may or may not be significant weather present at this time

METAR text: KMLB 180753Z AUTO 21004KT 9SM FEW065 21/19 A3003 RMK AO2 SLP167 T02110194
Conditions at: KMLB (MELBOURNE , FL, US) observed 0753 UTC 18 February 2019
Temperature: 21.1°C (70°F)
Dewpoint: 19.4°C (67°F) [RH = 90%]
Pressure (altimeter): 30.03 inches Hg (1017.0 mb)
[Sea-level pressure: 1016.7 mb]
Winds: from the SSW (210 degrees) at 5 MPH (4 knots; 2.1 m/s)
Visibility: 9 miles (14 km)
Ceiling: at least 12,000 feet AGL
Clouds: few clouds at 6500 feet AGL
Weather: automated observation with no human augmentation;
there may or may not be significant weather present at this time

METAR text: KMLB 180653Z AUTO 20005KT 10SM OVC060 22/20 A3003 RMK AO2 SLP168 T02220200
Conditions at: KMLB (MELBOURNE , FL, US) observed 0653 UTC 18 February 2019
Temperature: 22.2°C (72°F)
Dewpoint: 20.0°C (68°F) [RH = 87%]
Pressure (altimeter): 30.03 inches Hg (1017.0 mb)
[Sea-level pressure: 1016.8 mb]
Winds: from the SSW (200 degrees) at 6 MPH (5 knots; 2.6 m/s)
Visibility: 10 or more miles (16+ km)
Ceiling: 6000 feet AGL
Clouds: overcast cloud deck at 6000 feet AGL
Weather: automated observation with no human augmentation;
there may or may not be significant weather present at this time

METAR text: KMLB 180553Z AUTO 20005KT 10SM FEW055 22/19 A3003 RMK AO2 SLP168 T02220194 10244 20222 51002
Conditions at: KMLB (MELBOURNE , FL, US) observed 0553 UTC 18 February 2019
Temperature: 22.2°C (72°F)
Dewpoint: 19.4°C (67°F) [RH = 84%]
Pressure (altimeter): 30.03 inches Hg (1017.0 mb)
[Sea-level pressure: 1016.8 mb]
Winds: from the SSW (200 degrees) at 6 MPH (5 knots; 2.6 m/s)
Visibility: 10 or more miles (16+ km)
Ceiling: at least 12,000 feet AGL
Clouds: few clouds at 5500 feet AGL
Weather: automated observation with no human augmentation;
there may or may not be significant weather present at this time

METAR text: KMLB 180453Z AUTO 18007KT 10SM CLR 23/19 A3003 RMK AO2 SLP168 T02280194 402780161
Conditions at: KMLB (MELBOURNE , FL, US) observed 0453 UTC 18 February 2019
Temperature: 22.8°C (73°F)
Dewpoint: 19.4°C (67°F) [RH = 81%]
Pressure (altimeter): 30.03 inches Hg (1017.0 mb)
[Sea-level pressure: 1016.8 mb]
Winds: from the S (180 degrees) at 8 MPH (7 knots; 3.6 m/s)
Visibility: 10 or more miles (16+ km)
Ceiling: at least 12,000 feet AGL
Clouds: sky clear below 12,000 feet AGL
Weather: automated observation with no human augmentation;
there may or may not be significant weather present at this time

METAR text: KMLB 180353Z 18008KT 10SM CLR 23/19 A3003 RMK AO2 SLP169 T02330194
Conditions at: KMLB (MELBOURNE , FL, US) observed 0353 UTC 18 February 2019
Temperature: 23.3°C (74°F)
Dewpoint: 19.4°C (67°F) [RH = 79%]
Pressure (altimeter): 30.03 inches Hg (1017.0 mb)
[Sea-level pressure: 1016.9 mb]
Winds: from the S (180 degrees) at 9 MPH (8 knots; 4.1 m/s)
Visibility: 10 or more miles (16+ km)
Ceiling: at least 12,000 feet AGL
Clouds: sky clear below 12,000 feet AGL
Weather: no significant weather observed at this time

METAR text: KMLB 180253Z 18007KT 10SM FEW060 24/19 A3002 RMK AO2 SLP166 T02390194 51017
Conditions at: KMLB (MELBOURNE , FL, US) observed 0253 UTC 18 February 2019
Temperature: 23.9°C (75°F)
Dewpoint: 19.4°C (67°F) [RH = 76%]
Pressure (altimeter): 30.02 inches Hg (1016.7 mb)
[Sea-level pressure: 1016.6 mb]
Winds: from the S (180 degrees) at 8 MPH (7 knots; 3.6 m/s)
Visibility: 10 or more miles (16+ km)
Ceiling: at least 12,000 feet AGL
Clouds: few clouds at 6000 feet AGL
Weather: no significant weather observed at this time

METAR text: KMLB 180153Z 16006KT 10SM SCT060 23/20 A3001 RMK AO2 SLP162 T02330200
Conditions at: KMLB (MELBOURNE , FL, US) observed 0153 UTC 18 February 2019
Temperature: 23.3°C (74°F)
Dewpoint: 20.0°C (68°F) [RH = 82%]
Pressure (altimeter): 30.01 inches Hg (1016.3 mb)
[Sea-level pressure: 1016.2 mb]
Winds: from the SSE (160 degrees) at 7 MPH (6 knots; 3.1 m/s)
Visibility: 10 or more miles (16+ km)
Ceiling: at least 12,000 feet AGL
Clouds: scattered clouds at 6000 feet AGL
Weather: no significant weather observed at this time

METAR text: KMLB 180053Z 14006KT 10SM SCT060 24/20 A2999 RMK AO2 SLP155 T02390200
Conditions at: KMLB (MELBOURNE , FL, US) observed 0053 UTC 18 February 2019
Temperature: 23.9°C (75°F)
Dewpoint: 20.0°C (68°F) [RH = 79%]
Pressure (altimeter): 29.99 inches Hg (1015.7 mb)
[Sea-level pressure: 1015.5 mb]
Winds: from the SE (140 degrees) at 7 MPH (6 knots; 3.1 m/s)
Visibility: 10 or more miles (16+ km)
Ceiling: at least 12,000 feet AGL
Clouds: scattered clouds at 6000 feet AGL
Weather: no significant weather observed at this time

METAR text: KMLB 172353Z 15008KT 10SM CLR 24/20 A2997 RMK AO2 SLP149 T02440200 10278 20244 53008
Conditions at: KMLB (MELBOURNE , FL, US) observed 2353 UTC 17 February 2019
Temperature: 24.4°C (76°F)
Dewpoint: 20.0°C (68°F) [RH = 77%]
Pressure (altimeter): 29.97 inches Hg (1015.0 mb)
[Sea-level pressure: 1014.9 mb]
Winds: from the SSE (150 degrees) at 9 MPH (8 knots; 4.1 m/s)
Visibility: 10 or more miles (16+ km)
Ceiling: at least 12,000 feet AGL
Clouds: sky clear below 12,000 feet AGL
Weather: no significant weather observed at this time

Forecast for: KMLB (MELBOURNE , FL, US)
Text: KMLB 190941Z 1910/2006 02008KT P6SM SCT010 OVC070
Forecast period: 1000 to 1600 UTC 19 February 2019
Forecast type: FROM: standard forecast or significant change
Winds: from the NNE (20 degrees) at 9 MPH (8 knots; 4.1 m/s)
Visibility: 6 or more miles 10+ km)
Ceiling: 7000 feet AGL
Clouds: scattered clouds at 1000 feet AGL
overcast cloud deck at 7000 feet AGL
Weather: no significant weather forecast for this period
Text: TEMPO 1910/1913 4SM BR BKN004 OVC012
Forecast period: 1000 to 1300 UTC 19 February 2019
Forecast type: TEMPORARY: The following changes expected for less than half the time period
Visibility: 4 miles (6 km)
Ceiling: 400 feet AGL
Clouds: broken clouds at 400 feet AGL
overcast cloud deck at 1200 feet AGL
Weather: BR  (mist)
Text: FM191600 10008KT P6SM SCT025 BKN045
Forecast period: 1600 UTC 19 February 2019 to 0600 UTC 20 February 2019
Forecast type: FROM: standard forecast or significant change
Winds: from the E (100 degrees) at 9 MPH (8 knots; 4.1 m/s)
Visibility: 6 or more miles 10+ km)
Ceiling: 4500 feet AGL
Clouds: scattered clouds at 2500 feet AGL
broken clouds at 4500 feet AGL
Weather: no significant weather forecast for this period